createdAt,value
2022-10-13T00:01:17.200Z,30.73
2022-10-13T00:06:23.483Z,29.90
2022-10-13T00:08:51.602Z,30.00
2022-10-13T00:11:25.243Z,29.73
2022-10-13T00:13:56.879Z,29.40
2022-10-13T00:16:25.641Z,29.25
2022-10-13T00:18:53.175Z,28.73
2022-10-13T00:21:24.205Z,28.13
2022-10-13T00:23:53.355Z,28.50
2022-10-13T00:26:23.225Z,28.13
2022-10-13T00:28:52.879Z,27.20
2022-10-13T00:31:23.755Z,26.77
2022-10-13T00:33:51.888Z,26.45
2022-10-13T00:36:23.316Z,26.50
2022-10-13T00:38:52.216Z,27.90
2022-10-13T00:41:21.331Z,27.48
2022-10-13T00:44:00.004Z,29.88
2022-10-13T00:46:33.615Z,29.80
2022-10-13T00:49:11.722Z,28.90
2022-10-13T00:51:48.154Z,27.88
2022-10-13T00:54:24.198Z,27.92
2022-10-13T00:56:53.427Z,27.77
2022-10-13T00:59:29.055Z,27.30
2022-10-13T01:01:59.414Z,28.38
2022-10-13T01:04:31.238Z,30.20
2022-10-13T01:06:59.083Z,28.73
2022-10-13T01:09:26.915Z,30.88
2022-10-13T01:12:27.949Z,31.02
2022-10-13T01:15:17.282Z,31.52
2022-10-13T01:18:13.983Z,30.15
2022-10-13T01:21:19.434Z,28.63
2022-10-13T01:24:05.969Z,28.10
2022-10-13T01:26:48.749Z,28.25
2022-10-13T01:29:19.046Z,27.50
2022-10-13T01:32:16.364Z,28.55
2022-10-13T01:34:52.381Z,26.13
2022-10-13T01:37:31.103Z,24.27
2022-10-13T01:40:22.166Z,26.35
2022-10-13T01:43:08.127Z,27.13
2022-10-13T01:45:43.931Z,28.92
2022-10-13T01:48:15.450Z,28.88
2022-10-13T01:50:44.590Z,27.15
2022-10-13T01:53:13.827Z,25.90
2022-10-13T01:55:56.672Z,27.45
2022-10-13T01:58:27.327Z,27.42
2022-10-13T02:01:14.720Z,27.02
2022-10-13T02:03:48.942Z,24.88
2022-10-13T02:06:26.315Z,27.05
2022-10-13T02:09:05.585Z,29.70
2022-10-13T02:11:33.262Z,27.75
2022-10-13T02:14:08.177Z,30.70
2022-10-13T02:16:43.524Z,30.95
2022-10-13T02:19:14.723Z,30.63
2022-10-13T02:21:45.249Z,30.08
2022-10-13T02:24:13.746Z,30.83
2022-10-13T02:26:41.928Z,31.25
2022-10-13T02:29:16.833Z,30.88
2022-10-13T02:31:45.517Z,30.80
2022-10-13T02:34:13.992Z,31.65
2022-10-13T02:36:42.377Z,30.55
2022-10-13T02:39:11.081Z,30.70
2022-10-13T02:41:38.904Z,30.85
2022-10-13T02:44:07.026Z,32.88
2022-10-13T02:46:35.594Z,30.70
2022-10-13T02:49:03.118Z,30.83
2022-10-13T02:51:31.871Z,31.45
2022-10-13T02:54:01.629Z,29.92
2022-10-13T02:56:29.145Z,30.38
2022-10-13T02:58:56.620Z,28.58
2022-10-13T03:01:24.055Z,30.02
2022-10-13T03:03:51.680Z,29.98
2022-10-13T03:06:19.384Z,29.58
2022-10-13T03:08:47.060Z,29.73
2022-10-13T03:11:14.574Z,29.33
2022-10-13T03:13:42.030Z,29.55
2022-10-13T03:16:09.518Z,29.13
2022-10-13T03:18:37.186Z,28.63
2022-10-13T03:21:06.764Z,27.45
2022-10-13T03:23:34.549Z,28.92
2022-10-13T03:26:02.235Z,26.60
2022-10-13T03:28:30.047Z,28.00
2022-10-13T03:31:06.115Z,28.80
2022-10-13T03:33:33.811Z,28.13
2022-10-13T03:36:03.173Z,29.60
2022-10-13T03:38:32.307Z,29.75
2022-10-13T03:41:05.770Z,28.80
2022-10-13T03:43:33.735Z,28.92
2022-10-13T03:46:02.985Z,28.63
2022-10-13T03:48:31.421Z,30.77
2022-10-13T03:50:59.865Z,27.92
2022-10-13T03:53:28.469Z,27.38
2022-10-13T03:55:56.528Z,27.27
2022-10-13T03:58:24.953Z,26.13
2022-10-13T04:00:54.253Z,27.40
2022-10-13T04:03:21.899Z,27.20
2022-10-13T04:05:49.336Z,27.23
2022-10-13T04:08:18.506Z,26.75
2022-10-13T04:10:46.408Z,27.20
2022-10-13T04:13:13.915Z,26.67
2022-10-13T04:15:41.894Z,28.08
2022-10-13T04:18:10.764Z,28.92
2022-10-13T04:20:39.954Z,30.20
2022-10-13T04:23:08.004Z,29.40
2022-10-13T04:25:39.134Z,27.85
2022-10-13T04:28:07.309Z,28.23
2022-10-13T04:30:37.019Z,26.38
2022-10-13T04:33:07.910Z,26.98
2022-10-13T04:35:40.390Z,26.98
2022-10-13T04:38:07.964Z,27.50
2022-10-13T04:40:36.055Z,26.70
2022-10-13T04:43:03.742Z,28.88
2022-10-13T04:45:32.949Z,29.88
2022-10-13T04:48:01.227Z,29.35
2022-10-13T04:50:28.869Z,28.27
2022-10-13T04:53:01.187Z,27.30
2022-10-13T04:55:28.746Z,29.95
2022-10-13T04:57:56.205Z,30.20
2022-10-13T05:00:23.830Z,30.23
2022-10-13T05:02:51.555Z,30.02
2022-10-13T05:05:19.181Z,31.10
2022-10-13T05:07:46.775Z,29.17
2022-10-13T05:10:14.943Z,30.33
2022-10-13T05:12:42.439Z,27.58
2022-10-13T05:15:10.199Z,27.58
2022-10-13T05:17:37.730Z,27.40
2022-10-13T05:20:10.083Z,27.92
2022-10-13T05:22:37.681Z,29.27
2022-10-13T05:25:05.513Z,30.15
2022-10-13T05:27:33.116Z,29.38
2022-10-13T05:30:04.527Z,29.77
2022-10-13T05:32:32.032Z,29.75
2022-10-13T05:34:59.526Z,32.13
2022-10-13T05:37:27.108Z,31.80
2022-10-13T05:39:54.791Z,32.13
2022-10-13T05:42:22.896Z,33.65
2022-10-13T05:44:51.181Z,31.58
2022-10-13T05:47:18.758Z,32.78
2022-10-13T05:49:46.188Z,32.83
2022-10-13T05:52:13.718Z,31.08
2022-10-13T05:54:50.928Z,30.30
2022-10-13T05:57:28.976Z,28.85
2022-10-13T06:00:06.528Z,29.50
2022-10-13T06:03:03.905Z,30.98
2022-10-13T06:05:32.827Z,28.60
2022-10-13T06:08:00.786Z,29.95
2022-10-13T06:10:28.508Z,31.83
2022-10-13T06:12:55.946Z,32.53
2022-10-13T06:15:28.014Z,29.98
2022-10-13T06:17:57.182Z,29.83
2022-10-13T06:20:25.317Z,28.52
2022-10-13T06:22:54.951Z,29.08
2022-10-13T06:25:22.614Z,28.42
2022-10-13T06:27:50.345Z,28.73
2022-10-13T06:30:17.990Z,28.92
2022-10-13T06:32:45.483Z,29.40
2022-10-13T06:35:12.967Z,28.48
2022-10-13T06:37:40.452Z,26.90
2022-10-13T06:40:11.378Z,25.75
2022-10-13T06:42:38.934Z,26.38
2022-10-13T06:45:10.105Z,24.65
2022-10-13T06:47:41.044Z,23.63
2022-10-13T06:50:08.949Z,25.13
2022-10-13T06:52:37.699Z,23.73
2022-10-13T06:55:05.744Z,23.70
2022-10-13T06:57:33.900Z,22.45
2022-10-13T07:00:05.724Z,22.92
2022-10-13T07:02:34.521Z,20.88
2022-10-13T07:05:02.170Z,19.80
2022-10-13T07:07:29.782Z,20.00
2022-10-13T07:09:57.547Z,20.23
2022-10-13T07:12:57.359Z,16.77
2022-10-13T07:15:25.667Z,17.52
2022-10-13T07:17:54.981Z,16.05
2022-10-13T07:20:24.191Z,14.25
2022-10-13T07:22:54.233Z,14.45
2022-10-13T07:25:22.679Z,12.13
2022-10-13T07:27:50.183Z,10.65
2022-10-13T07:30:18.641Z,11.07
2022-10-13T07:32:48.366Z,10.68
2022-10-13T07:35:16.113Z,8.57
2022-10-13T07:37:44.873Z,8.50
2022-10-13T07:40:12.907Z,8.55
2022-10-13T07:42:40.408Z,7.57
2022-10-13T07:45:08.404Z,8.13
2022-10-13T07:47:36.034Z,7.88
2022-10-13T07:50:03.968Z,7.97
2022-10-13T07:52:31.709Z,7.40
2022-10-13T07:54:59.319Z,7.30
2022-10-13T07:57:27.740Z,7.80
2022-10-13T07:59:55.495Z,7.38
2022-10-13T08:02:23.208Z,6.70
2022-10-13T08:04:51.102Z,6.95
2022-10-13T08:07:19.205Z,6.90
2022-10-13T08:09:48.081Z,6.88
2022-10-13T08:12:15.834Z,6.40
2022-10-13T08:14:43.386Z,7.18
2022-10-13T08:17:11.390Z,6.65
2022-10-13T08:19:38.918Z,6.88
2022-10-13T08:22:09.621Z,7.70
2022-10-13T08:24:37.693Z,7.45
2022-10-13T08:27:05.179Z,7.72
2022-10-13T08:29:35.672Z,7.22
2022-10-13T08:32:03.350Z,7.30
2022-10-13T08:34:30.894Z,7.15
2022-10-13T08:37:00.251Z,7.32
2022-10-13T08:39:29.501Z,7.38
2022-10-13T08:41:57.969Z,7.22
2022-10-13T08:45:10.440Z,7.50
2022-10-13T08:47:29.451Z,9.00
2022-10-13T08:50:01.186Z,9.07
2022-10-13T08:52:41.945Z,8.65
2022-10-13T08:55:20.383Z,9.02
2022-10-13T08:57:48.148Z,9.27
2022-10-13T09:00:17.593Z,8.25
2022-10-13T09:02:50.912Z,8.63
2022-10-13T09:05:37.372Z,8.93
2022-10-13T09:08:15.707Z,9.05
2022-10-13T09:10:51.325Z,8.93
2022-10-13T09:13:20.370Z,8.43
2022-10-13T09:15:52.573Z,9.52
2022-10-13T09:18:28.780Z,8.98
2022-10-13T09:21:22.953Z,9.00
2022-10-13T09:23:52.219Z,8.57
2022-10-13T09:26:23.483Z,8.70
2022-10-13T09:28:52.638Z,9.55
2022-10-13T09:31:30.585Z,8.90
2022-10-13T09:34:09.199Z,8.13
2022-10-13T09:36:37.963Z,9.63
2022-10-13T09:39:16.459Z,9.55
2022-10-13T09:41:45.282Z,9.93
2022-10-13T09:44:33.248Z,10.20
2022-10-13T09:47:04.374Z,9.70
2022-10-13T09:49:43.621Z,10.68
2022-10-13T09:52:14.246Z,10.85
2022-10-13T09:54:41.747Z,11.57
2022-10-13T09:57:24.786Z,9.80
2022-10-13T10:00:10.656Z,11.17
2022-10-13T10:02:48.680Z,11.10
2022-10-13T10:05:38.251Z,11.05
2022-10-13T10:08:33.680Z,11.55
2022-10-13T10:11:28.821Z,12.20
2022-10-13T10:13:57.910Z,11.23
2022-10-13T10:16:38.753Z,11.48
2022-10-13T10:19:18.085Z,12.23
2022-10-13T10:21:55.881Z,11.05
2022-10-13T10:24:45.498Z,11.13
2022-10-13T10:27:26.514Z,10.98
2022-10-13T10:30:12.966Z,10.98
2022-10-13T10:32:51.621Z,11.38
2022-10-13T10:35:49.103Z,11.10
2022-10-13T10:38:36.766Z,11.75
2022-10-13T10:41:37.499Z,11.73
2022-10-13T10:44:12.780Z,12.02
2022-10-13T10:46:48.253Z,11.57
2022-10-13T10:49:23.543Z,11.23
2022-10-13T10:51:51.819Z,11.40
2022-10-13T10:54:24.008Z,11.38
2022-10-13T10:56:58.509Z,12.02
2022-10-13T10:59:31.443Z,12.13
2022-10-13T11:02:15.066Z,12.30
2022-10-13T11:04:44.173Z,12.50
2022-10-13T11:07:23.746Z,11.10
2022-10-13T11:09:54.947Z,10.55
2022-10-13T11:12:25.638Z,10.80
2022-10-13T11:15:11.075Z,11.10
2022-10-13T11:17:41.263Z,10.60
2022-10-13T11:20:21.198Z,11.88
2022-10-13T11:22:57.572Z,11.52
2022-10-13T11:25:40.040Z,11.10
2022-10-13T11:28:28.218Z,9.80
2022-10-13T11:31:17.055Z,9.98
2022-10-13T11:33:45.731Z,10.23
2022-10-13T11:36:32.797Z,9.48
2022-10-13T11:39:26.078Z,9.60
2022-10-13T11:42:02.628Z,10.00
2022-10-13T11:44:51.495Z,9.77
2022-10-13T11:47:29.746Z,9.32
2022-10-13T11:49:57.451Z,9.43
2022-10-13T11:52:40.426Z,7.82
2022-10-13T11:55:19.626Z,8.40
2022-10-13T11:57:48.391Z,8.45
2022-10-13T12:00:19.019Z,8.35
2022-10-13T12:03:22.956Z,9.40
2022-10-13T12:05:52.807Z,10.20
2022-10-13T12:08:23.423Z,8.68
2022-10-13T12:10:57.328Z,8.75
2022-10-13T12:13:30.857Z,10.32
2022-10-13T12:16:06.082Z,10.27
2022-10-13T12:18:38.287Z,10.98
2022-10-13T12:21:20.572Z,10.93
2022-10-13T12:23:53.151Z,10.68
2022-10-13T12:26:24.684Z,9.98
2022-10-13T12:29:14.409Z,9.98
2022-10-13T12:31:48.512Z,11.02
2022-10-13T12:34:19.229Z,8.63
2022-10-13T12:36:55.221Z,8.52
2022-10-13T12:39:25.546Z,8.63
2022-10-13T12:41:54.519Z,9.07
2022-10-13T12:44:26.165Z,9.15
2022-10-13T12:46:58.794Z,8.35
2022-10-13T12:50:14.702Z,8.45
2022-10-13T12:52:42.374Z,9.77
2022-10-13T12:55:19.268Z,8.70
2022-10-13T12:57:49.623Z,9.00
2022-10-13T13:00:20.395Z,7.90
2022-10-13T13:03:03.715Z,8.55
2022-10-13T13:05:38.392Z,8.68
2022-10-13T13:08:29.829Z,8.82
2022-10-13T13:11:20.129Z,8.85
2022-10-13T13:13:48.522Z,7.80
2022-10-13T13:16:16.820Z,8.40
2022-10-13T13:18:45.595Z,7.82
2022-10-13T13:21:16.031Z,8.15
2022-10-13T13:23:51.034Z,8.02
2022-10-13T13:26:23.448Z,8.18
2022-10-13T13:28:53.538Z,8.60
2022-10-13T13:31:24.344Z,8.10
2022-10-13T13:33:53.152Z,7.65
2022-10-13T13:36:26.123Z,8.73
2022-10-13T13:38:54.885Z,8.43
2022-10-13T13:41:24.086Z,8.00
2022-10-13T13:43:51.579Z,8.57
2022-10-13T13:46:25.053Z,8.73
2022-10-13T13:48:52.786Z,9.63
2022-10-13T13:51:20.288Z,8.85
2022-10-13T13:53:48.618Z,8.93
2022-10-13T13:56:19.759Z,8.27
2022-10-13T13:58:47.924Z,8.93
2022-10-13T14:01:15.909Z,8.93
2022-10-13T14:03:43.863Z,8.57
2022-10-13T14:06:19.909Z,7.72
2022-10-13T14:08:47.920Z,8.07
2022-10-13T14:11:16.782Z,8.95
2022-10-13T14:13:44.380Z,9.65
2022-10-13T14:16:17.864Z,8.82
2022-10-13T14:18:45.766Z,9.30
2022-10-13T14:21:13.421Z,9.45
2022-10-13T14:23:45.677Z,9.23
2022-10-13T14:26:14.018Z,9.30
2022-10-13T14:28:43.161Z,9.05
2022-10-13T14:31:11.998Z,9.57
2022-10-13T14:33:41.905Z,10.02
2022-10-13T14:36:10.012Z,11.77
2022-10-13T14:38:37.523Z,10.32
2022-10-13T14:41:06.338Z,9.65
2022-10-13T14:43:33.889Z,11.43
2022-10-13T14:46:05.958Z,11.57
2022-10-13T14:48:35.227Z,11.18
2022-10-13T14:51:10.652Z,9.77
2022-10-13T14:53:43.502Z,10.30
2022-10-13T14:56:27.074Z,9.13
2022-10-13T14:58:57.570Z,9.88
2022-10-13T15:01:33.361Z,10.20
2022-10-13T15:04:01.962Z,9.68
2022-10-13T15:06:31.975Z,9.07
2022-10-13T15:09:00.118Z,10.43
2022-10-13T15:11:27.960Z,9.85
2022-10-13T15:13:56.309Z,9.43
2022-10-13T15:16:27.905Z,9.30
2022-10-13T15:18:56.224Z,26.48
2022-10-13T15:21:24.672Z,39.50
2022-10-13T15:23:52.267Z,12.48
2022-10-13T15:26:20.625Z,11.23
2022-10-13T15:28:50.897Z,11.43
2022-10-13T15:31:21.994Z,10.38
2022-10-13T15:33:52.109Z,10.48
2022-10-13T15:36:25.675Z,10.45
2022-10-13T15:38:53.200Z,9.00
2022-10-13T15:41:23.000Z,10.02
2022-10-13T15:43:52.116Z,10.15
2022-10-13T15:46:26.170Z,9.07
2022-10-13T15:48:55.195Z,10.82
2022-10-13T15:51:24.335Z,9.93
2022-10-13T15:53:52.514Z,10.25
2022-10-13T15:56:20.997Z,9.57
2022-10-13T15:58:48.609Z,10.45
2022-10-13T16:01:17.645Z,11.60
2022-10-13T16:03:45.412Z,11.05
2022-10-13T16:06:14.351Z,11.77
2022-10-13T16:08:51.597Z,11.23
2022-10-13T16:11:21.138Z,11.75
2022-10-13T16:13:50.717Z,11.55
2022-10-13T16:16:19.149Z,10.25
2022-10-13T16:18:46.668Z,11.50
2022-10-13T16:21:19.007Z,10.90
2022-10-13T16:23:47.613Z,12.50
2022-10-13T16:26:17.449Z,11.85
2022-10-13T16:28:46.011Z,11.70
2022-10-13T16:31:15.932Z,12.65
2022-10-13T16:33:45.213Z,12.43
2022-10-13T16:36:15.683Z,12.30
2022-10-13T16:38:44.128Z,12.05
2022-10-13T16:41:14.643Z,13.02
2022-10-13T16:43:42.818Z,12.05
2022-10-13T16:46:13.411Z,12.38
2022-10-13T16:48:42.251Z,13.10
2022-10-13T16:51:13.645Z,12.85
2022-10-13T16:53:41.387Z,13.57
2022-10-13T16:56:09.376Z,13.65
2022-10-13T16:58:36.882Z,14.43
2022-10-13T17:01:11.710Z,14.55
2022-10-13T17:03:39.858Z,13.77
2022-10-13T17:06:07.526Z,14.43
2022-10-13T17:08:35.168Z,14.40
2022-10-13T17:11:05.026Z,14.38
2022-10-13T17:13:33.932Z,14.20
2022-10-13T17:16:01.773Z,14.48
2022-10-13T17:18:29.644Z,14.85
2022-10-13T17:21:02.373Z,14.75
2022-10-13T17:23:31.107Z,14.30
2022-10-13T17:26:04.517Z,14.70
2022-10-13T17:28:33.464Z,14.45
2022-10-13T17:31:05.217Z,14.90
2022-10-13T17:33:35.126Z,15.02
2022-10-13T17:36:07.032Z,14.30
2022-10-13T17:38:35.035Z,14.65
2022-10-13T17:41:05.194Z,16.35
2022-10-13T17:43:34.584Z,15.40
2022-10-13T17:46:35.190Z,16.65
2022-10-13T17:49:01.732Z,15.23
2022-10-13T17:51:29.300Z,16.25
2022-10-13T17:54:00.590Z,15.07
2022-10-13T17:56:29.061Z,15.13
2022-10-13T17:58:57.001Z,15.55
2022-10-13T18:01:31.649Z,16.17
2022-10-13T18:04:02.296Z,16.85
2022-10-13T18:06:37.885Z,16.25
2022-10-13T18:09:18.377Z,16.42
2022-10-13T18:11:50.599Z,16.92
2022-10-13T18:14:24.452Z,17.05
2022-10-13T18:16:52.861Z,17.13
2022-10-13T18:19:21.451Z,17.02
2022-10-13T18:21:49.509Z,17.23
2022-10-13T18:24:17.193Z,16.90
2022-10-13T18:26:44.994Z,17.65
2022-10-13T18:29:12.892Z,17.75
2022-10-13T18:31:41.585Z,17.70
2022-10-13T18:34:15.613Z,18.42
2022-10-13T18:36:47.250Z,17.02
2022-10-13T18:39:17.792Z,16.90
2022-10-13T18:41:49.890Z,17.00
2022-10-13T18:44:18.053Z,17.67
2022-10-13T18:46:48.469Z,17.85
2022-10-13T18:49:19.040Z,19.25
2022-10-13T18:51:46.718Z,17.65
2022-10-13T18:54:14.272Z,18.55
2022-10-13T18:56:41.746Z,18.55
2022-10-13T18:59:10.699Z,19.20
2022-10-13T19:01:39.442Z,18.02
2022-10-13T19:04:07.234Z,19.23
2022-10-13T19:06:35.562Z,20.20
2022-10-13T19:09:05.885Z,20.10
2022-10-13T19:11:37.341Z,19.83
2022-10-13T19:14:07.066Z,19.23
2022-10-13T19:16:39.533Z,20.50
2022-10-13T19:19:10.275Z,19.77
2022-10-13T19:21:39.052Z,19.88
2022-10-13T19:24:09.588Z,19.58
2022-10-13T19:26:37.733Z,19.63
2022-10-13T19:29:11.427Z,20.98
2022-10-13T19:31:40.645Z,21.30
2022-10-13T19:34:10.088Z,22.05
2022-10-13T19:36:43.295Z,22.08
2022-10-13T19:39:19.900Z,22.40
2022-10-13T19:41:48.851Z,23.48
2022-10-13T19:44:18.220Z,21.63
2022-10-13T19:46:47.405Z,23.70
2022-10-13T19:49:17.532Z,22.88
2022-10-13T19:51:46.505Z,22.23
2022-10-13T19:54:14.850Z,22.83
2022-10-13T19:56:47.525Z,24.33
2022-10-13T19:59:17.429Z,24.20
2022-10-13T20:01:45.243Z,25.85
2022-10-13T20:04:18.505Z,23.85
2022-10-13T20:06:47.455Z,23.77
2022-10-13T20:09:24.734Z,23.10
2022-10-13T20:11:55.531Z,24.67
2022-10-13T20:14:24.489Z,23.80
2022-10-13T20:16:59.559Z,23.48
2022-10-13T20:19:27.213Z,24.10
2022-10-13T20:21:54.813Z,24.20
2022-10-13T20:24:23.401Z,25.42
2022-10-13T20:26:53.349Z,25.13
2022-10-13T20:29:23.424Z,24.00
2022-10-13T20:31:50.970Z,25.15
2022-10-13T20:34:18.406Z,25.90
2022-10-13T20:36:45.952Z,24.35
2022-10-13T20:39:13.510Z,24.73
2022-10-13T20:41:42.180Z,25.65
2022-10-13T20:44:10.559Z,24.63
2022-10-13T20:46:38.060Z,25.67
2022-10-13T20:49:13.595Z,25.00
2022-10-13T20:51:42.870Z,25.23
2022-10-13T20:54:12.033Z,23.02
2022-10-13T20:56:39.907Z,23.65
2022-10-13T20:59:10.699Z,23.98
2022-10-13T21:01:38.739Z,24.77
2022-10-13T21:04:06.774Z,26.00
2022-10-13T21:06:35.801Z,25.35
2022-10-13T21:09:05.392Z,24.75
2022-10-13T21:11:33.336Z,23.77
2022-10-13T21:14:06.239Z,24.85
2022-10-13T21:16:34.280Z,24.27
2022-10-13T21:19:01.945Z,24.77
2022-10-13T21:21:31.873Z,24.30
2022-10-13T21:24:01.670Z,25.48
2022-10-13T21:26:31.601Z,23.58
2022-10-13T21:29:00.732Z,24.15
2022-10-13T21:31:29.425Z,23.83
2022-10-13T21:33:56.990Z,24.40
2022-10-13T21:36:32.991Z,24.13
2022-10-13T21:39:03.644Z,23.98
2022-10-13T21:41:31.597Z,24.20
2022-10-13T21:43:59.126Z,24.67
2022-10-13T21:46:32.512Z,23.98
2022-10-13T21:49:06.414Z,24.58
2022-10-13T21:51:37.838Z,23.63
2022-10-13T21:54:13.881Z,25.08
2022-10-13T21:56:42.187Z,24.23
2022-10-13T21:59:12.134Z,24.85
2022-10-13T22:01:39.726Z,24.60
2022-10-13T22:04:14.110Z,24.35
2022-10-13T22:06:42.171Z,24.70
2022-10-13T22:09:09.953Z,25.10
2022-10-13T22:11:39.394Z,23.85
2022-10-13T22:14:12.983Z,23.50
2022-10-13T22:16:46.807Z,25.75
2022-10-13T22:19:15.439Z,23.17
2022-10-13T22:21:45.197Z,25.17
2022-10-13T22:24:16.342Z,22.90
2022-10-13T22:26:45.461Z,23.23
2022-10-13T22:29:15.595Z,22.38
2022-10-13T22:31:43.841Z,22.80
2022-10-13T22:34:13.792Z,22.48
2022-10-13T22:36:44.772Z,23.55
2022-10-13T22:39:13.636Z,22.00
2022-10-13T22:41:41.685Z,23.42
2022-10-13T22:44:09.486Z,23.73
2022-10-13T22:46:38.487Z,24.05
2022-10-13T22:49:09.684Z,23.75
2022-10-13T22:51:37.438Z,23.27
2022-10-13T22:54:05.622Z,24.55
2022-10-13T22:56:34.571Z,23.98
2022-10-13T22:59:05.637Z,23.42
2022-10-13T23:01:33.256Z,25.10
2022-10-13T23:04:00.886Z,25.73
2022-10-13T23:06:30.835Z,23.75
2022-10-13T23:09:02.475Z,25.45
2022-10-13T23:11:30.372Z,24.42
2022-10-13T23:13:57.923Z,24.88
2022-10-13T23:16:26.869Z,25.00
2022-10-13T23:18:55.184Z,24.88
2022-10-13T23:21:28.555Z,24.45
2022-10-13T23:23:58.452Z,23.48
2022-10-13T23:26:26.483Z,24.60
2022-10-13T23:28:56.331Z,25.33
2022-10-13T23:31:24.869Z,25.33
2022-10-13T23:33:52.473Z,23.60
2022-10-13T23:36:24.147Z,23.92
2022-10-13T23:38:56.251Z,25.00
2022-10-13T23:41:24.115Z,25.70
2022-10-13T23:43:51.658Z,25.15
2022-10-13T23:46:19.880Z,25.65
2022-10-13T23:48:47.740Z,25.75
2022-10-13T23:51:19.893Z,25.92
2022-10-13T23:53:47.388Z,26.98
2022-10-13T23:56:16.022Z,27.00
2022-10-13T23:58:44.430Z,26.60
